sensor_id;sensor_type;location;lat;lon;timestamp;P1;durP1;ratioP1;P2;durP2;ratioP2
28028;SDS011;15345;59.364;18.016;2023-12-04T00:00:38;3.67;;;3.38;;
28028;SDS011;15345;59.364;18.016;2023-12-04T00:01:57;3.88;;;3.47;;
28028;SDS011;15345;59.364;18.016;2023-12-04T00:03:16;2.72;;;2.50;;
28028;SDS011;15345;59.364;18.016;2023-12-04T00:04:35;3.30;;;3.00;;
28028;SDS011;15345;59.364;18.016;2023-12-04T00:05:54;2.70;;;2.50;;
28028;SDS011;15345;59.364;18.016;2023-12-04T00:07:13;3.70;;;3.30;;
28028;SDS011;15345;59.364;18.016;2023-12-04T00:08:32;3.35;;;3.05;;
28028;SDS011;15345;59.364;18.016;2023-12-04T00:09:51;3.25;;;2.95;;
28028;SDS011;15345;59.364;18.016;2023-12-04T00:11:10;3.25;;;2.92;;
28028;SDS011;15345;59.364;18.016;2023-12-04T00:12:29;3.20;;;3.00;;
28028;SDS011;15345;59.364;18.016;2023-12-04T00:13:48;3.30;;;3.03;;
28028;SDS011;15345;59.364;18.016;2023-12-04T00:15:08;3.72;;;3.40;;
28028;SDS011;15345;59.364;18.016;2023-12-04T00:16:27;2.63;;;2.42;;
28028;SDS011;15345;59.364;18.016;2023-12-04T00:17:46;3.42;;;3.13;;
28028;SDS011;15345;59.364;18.016;2023-12-04T00:19:05;3.10;;;2.75;;
28028;SDS011;15345;59.364;18.016;2023-12-04T00:20:24;3.60;;;3.30;;
28028;SDS011;15345;59.364;18.016;2023-12-04T00:21:43;3.92;;;3.15;;
28028;SDS011;15345;59.364;18.016;2023-12-04T00:23:03;4.95;;;3.08;;
28028;SDS011;15345;59.364;18.016;2023-12-04T00:24:22;3.10;;;2.90;;
28028;SDS011;15345;59.364;18.016;2023-12-04T00:25:41;3.30;;;3.10;;
28028;SDS011;15345;59.364;18.016;2023-12-04T00:27:00;3.08;;;2.78;;
28028;SDS011;15345;59.364;18.016;2023-12-04T00:28:19;3.22;;;2.92;;
28028;SDS011;15345;59.364;18.016;2023-12-04T00:29:38;3.28;;;2.97;;
28028;SDS011;15345;59.364;18.016;2023-12-04T00:30:57;3.17;;;2.88;;
28028;SDS011;15345;59.364;18.016;2023-12-04T00:32:15;3.17;;;2.92;;
28028;SDS011;15345;59.364;18.016;2023-12-04T00:33:35;3.50;;;3.20;;
28028;SDS011;15345;59.364;18.016;2023-12-04T00:34:54;2.95;;;2.75;;
28028;SDS011;15345;59.364;18.016;2023-12-04T00:36:13;3.67;;;3.35;;
28028;SDS011;15345;59.364;18.016;2023-12-04T00:37:32;3.65;;;2.90;;
28028;SDS011;15345;59.364;18.016;2023-12-04T00:38:55;3.55;;;3.25;;
28028;SDS011;15345;59.364;18.016;2023-12-04T00:40:14;2.95;;;2.65;;
28028;SDS011;15345;59.364;18.016;2023-12-04T00:41:33;3.80;;;3.50;;
28028;SDS011;15345;59.364;18.016;2023-12-04T00:42:52;3.28;;;2.97;;
28028;SDS011;15345;59.364;18.016;2023-12-04T00:44:11;3.13;;;2.83;;
28028;SDS011;15345;59.364;18.016;2023-12-04T00:45:30;3.50;;;3.20;;
28028;SDS011;15345;59.364;18.016;2023-12-04T00:46:49;3.63;;;3.33;;
28028;SDS011;15345;59.364;18.016;2023-12-04T00:48:08;3.47;;;3.15;;
28028;SDS011;15345;59.364;18.016;2023-12-04T00:49:27;3.45;;;3.13;;
28028;SDS011;15345;59.364;18.016;2023-12-04T00:50:45;3.50;;;3.20;;
28028;SDS011;15345;59.364;18.016;2023-12-04T00:52:04;3.38;;;3.08;;
28028;SDS011;15345;59.364;18.016;2023-12-04T00:53:24;3.03;;;2.80;;
28028;SDS011;15345;59.364;18.016;2023-12-04T00:54:43;3.80;;;3.38;;
28028;SDS011;15345;59.364;18.016;2023-12-04T00:56:02;3.83;;;2.60;;
28028;SDS011;15345;59.364;18.016;2023-12-04T00:57:21;3.78;;;3.45;;
28028;SDS011;15345;59.364;18.016;2023-12-04T00:58:40;3.63;;;3.33;;
28028;SDS011;15345;59.364;18.016;2023-12-04T00:59:59;4.18;;;2.85;;
28028;SDS011;15345;59.364;18.016;2023-12-04T01:01:18;3.35;;;3.05;;
28028;SDS011;15345;59.364;18.016;2023-12-04T01:02:37;3.83;;;3.25;;
28028;SDS011;15345;59.364;18.016;2023-12-04T01:03:56;3.58;;;3.28;;
28028;SDS011;15345;59.364;18.016;2023-12-04T01:05:15;3.38;;;3.08;;
28028;SDS011;15345;59.364;18.016;2023-12-04T01:06:35;3.38;;;3.08;;
28028;SDS011;15345;59.364;18.016;2023-12-04T01:07:55;3.50;;;3.20;;
28028;SDS011;15345;59.364;18.016;2023-12-04T01:09:14;3.45;;;3.15;;
28028;SDS011;15345;59.364;18.016;2023-12-04T01:10:33;2.75;;;2.55;;
28028;SDS011;15345;59.364;18.016;2023-12-04T01:11:53;3.67;;;3.38;;
28028;SDS011;15345;59.364;18.016;2023-12-04T01:13:12;3.22;;;2.92;;
28028;SDS011;15345;59.364;18.016;2023-12-04T01:14:31;3.28;;;3.05;;
28028;SDS011;15345;59.364;18.016;2023-12-04T01:15:50;3.55;;;3.25;;
28028;SDS011;15345;59.364;18.016;2023-12-04T01:17:09;3.17;;;2.92;;
28028;SDS011;15345;59.364;18.016;2023-12-04T01:18:28;4.32;;;3.08;;
28028;SDS011;15345;59.364;18.016;2023-12-04T01:19:47;3.45;;;3.15;;
28028;SDS011;15345;59.364;18.016;2023-12-04T01:21:06;4.60;;;3.30;;
28028;SDS011;15345;59.364;18.016;2023-12-04T01:22:25;3.10;;;2.90;;
28028;SDS011;15345;59.364;18.016;2023-12-04T01:23:44;3.63;;;3.25;;
28028;SDS011;15345;59.364;18.016;2023-12-04T01:25:03;3.40;;;3.10;;
28028;SDS011;15345;59.364;18.016;2023-12-04T01:26:22;3.65;;;3.30;;
28028;SDS011;15345;59.364;18.016;2023-12-04T01:27:41;4.82;;;3.35;;
28028;SDS011;15345;59.364;18.016;2023-12-04T01:28:59;3.47;;;3.17;;
28028;SDS011;15345;59.364;18.016;2023-12-04T01:30:19;3.50;;;3.20;;
28028;SDS011;15345;59.364;18.016;2023-12-04T01:31:38;3.35;;;3.15;;
28028;SDS011;15345;59.364;18.016;2023-12-04T01:32:56;3.83;;;3.42;;
28028;SDS011;15345;59.364;18.016;2023-12-04T01:34:15;4.25;;;3.30;;
28028;SDS011;15345;59.364;18.016;2023-12-04T01:35:35;3.40;;;3.10;;
28028;SDS011;15345;59.364;18.016;2023-12-04T01:36:55;3.53;;;3.22;;
28028;SDS011;15345;59.364;18.016;2023-12-04T01:38:14;5.72;;;3.10;;
28028;SDS011;15345;59.364;18.016;2023-12-04T01:39:33;3.20;;;2.90;;
28028;SDS011;15345;59.364;18.016;2023-12-04T01:40:52;3.17;;;2.97;;
28028;SDS011;15345;59.364;18.016;2023-12-04T01:42:11;3.15;;;2.92;;
28028;SDS011;15345;59.364;18.016;2023-12-04T01:43:30;3.33;;;3.03;;
28028;SDS011;15345;59.364;18.016;2023-12-04T01:44:49;3.90;;;3.42;;
28028;SDS011;15345;59.364;18.016;2023-12-04T01:46:08;3.50;;;3.20;;
28028;SDS011;15345;59.364;18.016;2023-12-04T01:47:28;3.30;;;2.75;;
28028;SDS011;15345;59.364;18.016;2023-12-04T01:48:47;3.30;;;3.00;;
28028;SDS011;15345;59.364;18.016;2023-12-04T01:50:06;3.05;;;2.80;;
28028;SDS011;15345;59.364;18.016;2023-12-04T01:51:26;3.72;;;3.28;;
28028;SDS011;15345;59.364;18.016;2023-12-04T01:52:45;3.47;;;3.17;;
28028;SDS011;15345;59.364;18.016;2023-12-04T01:54:05;3.47;;;3.17;;
28028;SDS011;15345;59.364;18.016;2023-12-04T01:55:24;3.50;;;3.20;;
28028;SDS011;15345;59.364;18.016;2023-12-04T01:56:43;3.78;;;3.20;;
28028;SDS011;15345;59.364;18.016;2023-12-04T01:58:03;3.00;;;2.80;;
28028;SDS011;15345;59.364;18.016;2023-12-04T01:59:23;3.65;;;3.35;;
28028;SDS011;15345;59.364;18.016;2023-12-04T02:00:43;3.35;;;3.05;;
28028;SDS011;15345;59.364;18.016;2023-12-04T02:02:01;3.97;;;3.22;;
28028;SDS011;15345;59.364;18.016;2023-12-04T02:03:21;3.13;;;2.83;;
28028;SDS011;15345;59.364;18.016;2023-12-04T02:04:40;4.47;;;3.40;;
28028;SDS011;15345;59.364;18.016;2023-12-04T02:05:59;4.78;;;3.38;;
28028;SDS011;15345;59.364;18.016;2023-12-04T02:07:21;3.67;;;2.95;;
28028;SDS011;15345;59.364;18.016;2023-12-04T02:08:40;3.63;;;3.15;;
28028;SDS011;15345;59.364;18.016;2023-12-04T02:09:59;3.58;;;2.80;;
28028;SDS011;15345;59.364;18.016;2023-12-04T02:11:18;3.03;;;2.83;;
28028;SDS011;15345;59.364;18.016;2023-12-04T02:12:37;3.30;;;3.00;;
28028;SDS011;15345;59.364;18.016;2023-12-04T02:13:56;3.42;;;3.00;;
28028;SDS011;15345;59.364;18.016;2023-12-04T02:15:15;2.83;;;2.63;;
28028;SDS011;15345;59.364;18.016;2023-12-04T02:16:36;4.40;;;3.25;;
28028;SDS011;15345;59.364;18.016;2023-12-04T02:17:57;3.28;;;3.03;;
28028;SDS011;15345;59.364;18.016;2023-12-04T02:19:19;3.67;;;3.38;;
28028;SDS011;15345;59.364;18.016;2023-12-04T02:20:38;3.53;;;3.22;;
28028;SDS011;15345;59.364;18.016;2023-12-04T02:21:57;3.75;;;3.20;;
28028;SDS011;15345;59.364;18.016;2023-12-04T02:23:16;3.38;;;3.08;;
28028;SDS011;15345;59.364;18.016;2023-12-04T02:24:35;3.53;;;3.20;;
28028;SDS011;15345;59.364;18.016;2023-12-04T02:26:16;3.58;;;3.28;;
28028;SDS011;15345;59.364;18.016;2023-12-04T02:27:37;4.30;;;3.10;;
28028;SDS011;15345;59.364;18.016;2023-12-04T02:28:58;3.47;;;3.22;;
28028;SDS011;15345;59.364;18.016;2023-12-04T02:30:19;3.95;;;3.47;;
28028;SDS011;15345;59.364;18.016;2023-12-04T02:31:39;3.80;;;3.28;;
28028;SDS011;15345;59.364;18.016;2023-12-04T02:33:00;3.30;;;3.00;;
28028;SDS011;15345;59.364;18.016;2023-12-04T02:34:20;3.38;;;3.08;;
28028;SDS011;15345;59.364;18.016;2023-12-04T02:35:39;3.22;;;2.92;;
28028;SDS011;15345;59.364;18.016;2023-12-04T02:36:59;4.13;;;3.72;;
28028;SDS011;15345;59.364;18.016;2023-12-04T02:38:18;4.18;;;3.78;;
28028;SDS011;15345;59.364;18.016;2023-12-04T02:39:39;4.85;;;3.55;;
28028;SDS011;15345;59.364;18.016;2023-12-04T02:40:58;4.32;;;3.95;;
28028;SDS011;15345;59.364;18.016;2023-12-04T02:42:17;3.80;;;3.40;;
28028;SDS011;15345;59.364;18.016;2023-12-04T02:43:36;4.47;;;3.33;;
28028;SDS011;15345;59.364;18.016;2023-12-04T02:45:01;3.75;;;3.30;;
28028;SDS011;15345;59.364;18.016;2023-12-04T02:46:29;3.60;;;3.30;;
28028;SDS011;15345;59.364;18.016;2023-12-04T02:47:49;4.43;;;3.63;;
28028;SDS011;15345;59.364;18.016;2023-12-04T02:49:08;4.50;;;4.10;;
28028;SDS011;15345;59.364;18.016;2023-12-04T02:50:36;4.05;;;3.45;;
28028;SDS011;15345;59.364;18.016;2023-12-04T02:52:25;4.90;;;3.85;;
28028;SDS011;15345;59.364;18.016;2023-12-04T02:53:53;4.20;;;3.80;;
28028;SDS011;15345;59.364;18.016;2023-12-04T02:55:45;4.32;;;3.47;;
28028;SDS011;15345;59.364;18.016;2023-12-04T02:57:32;4.20;;;3.78;;
28028;SDS011;15345;59.364;18.016;2023-12-04T02:59:05;5.07;;;3.50;;
28028;SDS011;15345;59.364;18.016;2023-12-04T03:00:38;4.78;;;3.95;;
28028;SDS011;15345;59.364;18.016;2023-12-04T03:04:01;5.15;;;3.63;;
28028;SDS011;15345;59.364;18.016;2023-12-04T03:07:28;4.47;;;3.97;;
28028;SDS011;15345;59.364;18.016;2023-12-04T03:08:47;5.28;;;4.32;;
28028;SDS011;15345;59.364;18.016;2023-12-04T03:10:07;5.07;;;4.25;;
28028;SDS011;15345;59.364;18.016;2023-12-04T03:11:26;4.40;;;4.00;;
28028;SDS011;15345;59.364;18.016;2023-12-04T03:12:45;4.32;;;3.92;;
28028;SDS011;15345;59.364;18.016;2023-12-04T03:14:04;4.95;;;4.07;;
28028;SDS011;15345;59.364;18.016;2023-12-04T03:15:23;4.72;;;4.13;;
28028;SDS011;15345;59.364;18.016;2023-12-04T03:16:43;4.90;;;4.40;;
28028;SDS011;15345;59.364;18.016;2023-12-04T03:18:02;5.47;;;4.18;;
28028;SDS011;15345;59.364;18.016;2023-12-04T03:19:21;5.93;;;3.95;;
28028;SDS011;15345;59.364;18.016;2023-12-04T03:20:40;4.85;;;3.90;;
28028;SDS011;15345;59.364;18.016;2023-12-04T03:21:59;6.97;;;4.22;;
28028;SDS011;15345;59.364;18.016;2023-12-04T03:23:19;5.20;;;4.07;;
28028;SDS011;15345;59.364;18.016;2023-12-04T03:24:38;3.90;;;3.60;;
28028;SDS011;15345;59.364;18.016;2023-12-04T03:25:57;4.20;;;3.80;;
28028;SDS011;15345;59.364;18.016;2023-12-04T03:27:16;5.55;;;3.80;;
28028;SDS011;15345;59.364;18.016;2023-12-04T03:28:35;3.75;;;3.45;;
28028;SDS011;15345;59.364;18.016;2023-12-04T03:29:54;4.40;;;3.75;;
28028;SDS011;15345;59.364;18.016;2023-12-04T03:31:13;4.28;;;3.60;;
28028;SDS011;15345;59.364;18.016;2023-12-04T03:32:33;4.45;;;3.10;;
28028;SDS011;15345;59.364;18.016;2023-12-04T03:33:52;4.43;;;4.03;;
28028;SDS011;15345;59.364;18.016;2023-12-04T03:35:11;5.20;;;4.35;;
28028;SDS011;15345;59.364;18.016;2023-12-04T03:36:30;5.68;;;3.50;;
28028;SDS011;15345;59.364;18.016;2023-12-04T03:37:49;4.85;;;4.40;;
28028;SDS011;15345;59.364;18.016;2023-12-04T03:39:08;5.55;;;4.07;;
28028;SDS011;15345;59.364;18.016;2023-12-04T03:40:27;4.50;;;4.10;;
28028;SDS011;15345;59.364;18.016;2023-12-04T03:41:47;4.78;;;4.28;;
28028;SDS011;15345;59.364;18.016;2023-12-04T03:43:16;4.60;;;4.10;;
28028;SDS011;15345;59.364;18.016;2023-12-04T03:44:35;4.40;;;3.95;;
28028;SDS011;15345;59.364;18.016;2023-12-04T03:45:54;3.90;;;3.42;;
28028;SDS011;15345;59.364;18.016;2023-12-04T03:47:13;4.55;;;4.07;;
28028;SDS011;15345;59.364;18.016;2023-12-04T03:48:32;4.32;;;3.67;;
28028;SDS011;15345;59.364;18.016;2023-12-04T03:49:51;3.88;;;3.53;;
28028;SDS011;15345;59.364;18.016;2023-12-04T03:51:09;4.22;;;3.92;;
28028;SDS011;15345;59.364;18.016;2023-12-04T03:52:29;3.95;;;3.40;;
28028;SDS011;15345;59.364;18.016;2023-12-04T03:53:48;4.85;;;3.80;;
28028;SDS011;15345;59.364;18.016;2023-12-04T03:55:07;4.55;;;3.50;;
28028;SDS011;15345;59.364;18.016;2023-12-04T03:56:26;4.15;;;3.75;;
28028;SDS011;15345;59.364;18.016;2023-12-04T03:57:46;3.67;;;3.20;;
28028;SDS011;15345;59.364;18.016;2023-12-04T03:59:05;6.22;;;3.78;;
28028;SDS011;15345;59.364;18.016;2023-12-04T04:00:24;3.67;;;3.38;;
28028;SDS011;15345;59.364;18.016;2023-12-04T04:01:44;5.30;;;3.55;;
28028;SDS011;15345;59.364;18.016;2023-12-04T04:03:02;5.45;;;4.22;;
28028;SDS011;15345;59.364;18.016;2023-12-04T04:04:22;4.25;;;3.78;;
28028;SDS011;15345;59.364;18.016;2023-12-04T04:05:41;6.30;;;3.78;;
28028;SDS011;15345;59.364;18.016;2023-12-04T04:07:00;5.80;;;4.18;;
28028;SDS011;15345;59.364;18.016;2023-12-04T04:08:19;7.20;;;4.55;;
28028;SDS011;15345;59.364;18.016;2023-12-04T04:09:38;5.28;;;4.38;;
28028;SDS011;15345;59.364;18.016;2023-12-04T04:10:57;5.80;;;4.85;;
28028;SDS011;15345;59.364;18.016;2023-12-04T04:12:15;6.30;;;5.00;;
28028;SDS011;15345;59.364;18.016;2023-12-04T04:13:34;4.47;;;4.07;;
28028;SDS011;15345;59.364;18.016;2023-12-04T04:14:53;4.45;;;4.05;;
28028;SDS011;15345;59.364;18.016;2023-12-04T04:16:14;4.45;;;3.75;;
28028;SDS011;15345;59.364;18.016;2023-12-04T04:17:33;5.07;;;3.92;;
28028;SDS011;15345;59.364;18.016;2023-12-04T04:18:52;5.22;;;4.20;;
28028;SDS011;15345;59.364;18.016;2023-12-04T04:20:11;5.03;;;3.50;;
28028;SDS011;15345;59.364;18.016;2023-12-04T04:21:31;4.15;;;3.60;;
28028;SDS011;15345;59.364;18.016;2023-12-04T04:22:50;4.63;;;4.10;;
28028;SDS011;15345;59.364;18.016;2023-12-04T04:24:09;3.88;;;3.50;;
28028;SDS011;15345;59.364;18.016;2023-12-04T04:25:28;4.40;;;3.92;;
28028;SDS011;15345;59.364;18.016;2023-12-04T04:26:47;6.25;;;3.88;;
28028;SDS011;15345;59.364;18.016;2023-12-04T04:28:06;4.00;;;3.58;;
28028;SDS011;15345;59.364;18.016;2023-12-04T04:29:25;4.18;;;3.65;;
28028;SDS011;15345;59.364;18.016;2023-12-04T04:30:45;5.05;;;3.53;;
28028;SDS011;15345;59.364;18.016;2023-12-04T04:32:04;4.53;;;3.78;;
28028;SDS011;15345;59.364;18.016;2023-12-04T04:33:23;4.13;;;3.78;;
28028;SDS011;15345;59.364;18.016;2023-12-04T04:34:42;3.85;;;3.55;;
28028;SDS011;15345;59.364;18.016;2023-12-04T04:36:01;5.10;;;3.50;;
28028;SDS011;15345;59.364;18.016;2023-12-04T04:37:20;3.67;;;3.38;;
28028;SDS011;15345;59.364;18.016;2023-12-04T04:38:39;4.00;;;3.50;;
28028;SDS011;15345;59.364;18.016;2023-12-04T04:39:58;3.55;;;3.25;;
28028;SDS011;15345;59.364;18.016;2023-12-04T04:41:17;4.10;;;3.63;;
28028;SDS011;15345;59.364;18.016;2023-12-04T04:42:37;4.78;;;4.00;;
28028;SDS011;15345;59.364;18.016;2023-12-04T04:43:55;3.55;;;3.25;;
28028;SDS011;15345;59.364;18.016;2023-12-04T04:45:14;3.28;;;2.97;;
28028;SDS011;15345;59.364;18.016;2023-12-04T04:46:33;3.55;;;3.25;;
28028;SDS011;15345;59.364;18.016;2023-12-04T04:47:52;3.90;;;3.60;;
28028;SDS011;15345;59.364;18.016;2023-12-04T04:49:11;4.00;;;3.50;;
28028;SDS011;15345;59.364;18.016;2023-12-04T04:50:31;4.22;;;3.85;;
28028;SDS011;15345;59.364;18.016;2023-12-04T04:51:50;3.63;;;3.33;;
28028;SDS011;15345;59.364;18.016;2023-12-04T04:53:09;3.65;;;3.35;;
28028;SDS011;15345;59.364;18.016;2023-12-04T04:54:30;5.00;;;3.65;;
28028;SDS011;15345;59.364;18.016;2023-12-04T04:55:49;3.60;;;3.30;;
28028;SDS011;15345;59.364;18.016;2023-12-04T04:57:08;3.90;;;3.53;;
28028;SDS011;15345;59.364;18.016;2023-12-04T04:58:27;4.03;;;3.63;;
28028;SDS011;15345;59.364;18.016;2023-12-04T04:59:46;3.45;;;3.15;;
28028;SDS011;15345;59.364;18.016;2023-12-04T05:01:06;5.20;;;3.28;;
28028;SDS011;15345;59.364;18.016;2023-12-04T05:02:25;5.90;;;3.90;;
28028;SDS011;15345;59.364;18.016;2023-12-04T05:03:44;3.60;;;3.30;;
28028;SDS011;15345;59.364;18.016;2023-12-04T05:05:04;3.90;;;3.60;;
28028;SDS011;15345;59.364;18.016;2023-12-04T05:06:23;4.40;;;3.83;;
28028;SDS011;15345;59.364;18.016;2023-12-04T05:07:42;5.07;;;3.70;;
28028;SDS011;15345;59.364;18.016;2023-12-04T05:09:01;4.47;;;3.35;;
28028;SDS011;15345;59.364;18.016;2023-12-04T05:10:20;4.30;;;3.78;;
28028;SDS011;15345;59.364;18.016;2023-12-04T05:11:39;4.05;;;3.70;;
28028;SDS011;15345;59.364;18.016;2023-12-04T05:12:58;3.90;;;3.58;;
28028;SDS011;15345;59.364;18.016;2023-12-04T05:14:17;4.18;;;3.75;;
28028;SDS011;15345;59.364;18.016;2023-12-04T05:15:36;4.55;;;4.15;;
28028;SDS011;15345;59.364;18.016;2023-12-04T05:16:55;4.30;;;3.90;;
28028;SDS011;15345;59.364;18.016;2023-12-04T05:18:14;4.18;;;3.78;;
28028;SDS011;15345;59.364;18.016;2023-12-04T05:19:33;4.75;;;3.80;;
28028;SDS011;15345;59.364;18.016;2023-12-04T05:20:52;5.72;;;3.95;;
28028;SDS011;15345;59.364;18.016;2023-12-04T05:22:11;4.85;;;3.60;;
28028;SDS011;15345;59.364;18.016;2023-12-04T05:23:30;4.00;;;3.60;;
28028;SDS011;15345;59.364;18.016;2023-12-04T05:24:50;3.92;;;3.53;;
28028;SDS011;15345;59.364;18.016;2023-12-04T05:26:09;4.35;;;3.67;;
28028;SDS011;15345;59.364;18.016;2023-12-04T05:27:28;4.32;;;3.90;;
28028;SDS011;15345;59.364;18.016;2023-12-04T05:28:47;3.97;;;3.55;;
28028;SDS011;15345;59.364;18.016;2023-12-04T05:30:06;4.43;;;4.03;;
28028;SDS011;15345;59.364;18.016;2023-12-04T05:31:26;6.72;;;3.58;;
28028;SDS011;15345;59.364;18.016;2023-12-04T05:32:45;3.90;;;3.60;;
28028;SDS011;15345;59.364;18.016;2023-12-04T05:34:04;4.53;;;3.28;;
28028;SDS011;15345;59.364;18.016;2023-12-04T05:35:22;3.80;;;3.50;;
28028;SDS011;15345;59.364;18.016;2023-12-04T05:36:42;6.43;;;4.25;;
28028;SDS011;15345;59.364;18.016;2023-12-04T05:38:01;4.45;;;4.05;;
28028;SDS011;15345;59.364;18.016;2023-12-04T05:39:23;4.22;;;3.83;;
28028;SDS011;15345;59.364;18.016;2023-12-04T05:40:42;3.47;;;3.17;;
28028;SDS011;15345;59.364;18.016;2023-12-04T05:42:01;5.45;;;3.97;;
28028;SDS011;15345;59.364;18.016;2023-12-04T05:43:21;4.20;;;3.70;;
28028;SDS011;15345;59.364;18.016;2023-12-04T05:44:40;6.80;;;3.92;;
28028;SDS011;15345;59.364;18.016;2023-12-04T05:45:58;3.53;;;3.17;;
28028;SDS011;15345;59.364;18.016;2023-12-04T05:47:17;3.90;;;3.47;;
28028;SDS011;15345;59.364;18.016;2023-12-04T05:48:36;4.88;;;3.15;;
28028;SDS011;15345;59.364;18.016;2023-12-04T05:49:55;4.30;;;3.70;;
28028;SDS011;15345;59.364;18.016;2023-12-04T05:51:14;3.50;;;3.20;;
28028;SDS011;15345;59.364;18.016;2023-12-04T05:52:34;3.33;;;3.03;;
28028;SDS011;15345;59.364;18.016;2023-12-04T05:53:52;4.70;;;3.15;;
28028;SDS011;15345;59.364;18.016;2023-12-04T05:55:12;3.10;;;2.90;;
28028;SDS011;15345;59.364;18.016;2023-12-04T05:56:31;4.00;;;3.45;;
28028;SDS011;15345;59.364;18.016;2023-12-04T05:57:50;3.53;;;3.22;;
28028;SDS011;15345;59.364;18.016;2023-12-04T05:59:09;3.45;;;3.15;;
28028;SDS011;15345;59.364;18.016;2023-12-04T06:00:27;3.60;;;3.30;;
28028;SDS011;15345;59.364;18.016;2023-12-04T06:01:46;3.95;;;3.40;;
28028;SDS011;15345;59.364;18.016;2023-12-04T06:03:05;3.35;;;3.05;;
28028;SDS011;15345;59.364;18.016;2023-12-04T06:04:24;5.22;;;3.38;;
28028;SDS011;15345;59.364;18.016;2023-12-04T06:05:43;6.68;;;3.20;;
28028;SDS011;15345;59.364;18.016;2023-12-04T06:07:02;4.47;;;3.17;;
28028;SDS011;15345;59.364;18.016;2023-12-04T06:08:21;3.97;;;2.78;;
28028;SDS011;15345;59.364;18.016;2023-12-04T06:09:40;4.10;;;3.28;;
28028;SDS011;15345;59.364;18.016;2023-12-04T06:10:59;3.85;;;3.17;;
28028;SDS011;15345;59.364;18.016;2023-12-04T06:12:18;3.45;;;3.15;;
28028;SDS011;15345;59.364;18.016;2023-12-04T06:13:37;4.20;;;2.58;;
28028;SDS011;15345;59.364;18.016;2023-12-04T06:14:57;3.13;;;2.90;;
28028;SDS011;15345;59.364;18.016;2023-12-04T06:16:17;3.25;;;2.95;;
28028;SDS011;15345;59.364;18.016;2023-12-04T06:17:36;2.97;;;2.78;;
28028;SDS011;15345;59.364;18.016;2023-12-04T06:18:55;3.08;;;2.88;;
28028;SDS011;15345;59.364;18.016;2023-12-04T06:20:14;3.65;;;2.78;;
28028;SDS011;15345;59.364;18.016;2023-12-04T06:21:33;2.88;;;2.67;;
28028;SDS011;15345;59.364;18.016;2023-12-04T06:22:52;3.47;;;3.00;;
28028;SDS011;15345;59.364;18.016;2023-12-04T06:24:12;3.22;;;2.80;;
28028;SDS011;15345;59.364;18.016;2023-12-04T06:25:31;2.83;;;2.30;;
28028;SDS011;15345;59.364;18.016;2023-12-04T06:26:50;2.33;;;2.13;;
28028;SDS011;15345;59.364;18.016;2023-12-04T06:28:10;2.35;;;2.15;;
28028;SDS011;15345;59.364;18.016;2023-12-04T06:29:29;2.80;;;2.58;;
28028;SDS011;15345;59.364;18.016;2023-12-04T06:30:48;4.15;;;3.03;;
28028;SDS011;15345;59.364;18.016;2023-12-04T06:32:07;3.95;;;2.50;;
28028;SDS011;15345;59.364;18.016;2023-12-04T06:33:27;3.90;;;3.50;;
28028;SDS011;15345;59.364;18.016;2023-12-04T06:34:46;3.50;;;3.20;;
28028;SDS011;15345;59.364;18.016;2023-12-04T06:36:05;3.45;;;2.97;;
28028;SDS011;15345;59.364;18.016;2023-12-04T06:37:25;3.33;;;2.83;;
28028;SDS011;15345;59.364;18.016;2023-12-04T06:38:46;2.50;;;2.30;;
28028;SDS011;15345;59.364;18.016;2023-12-04T06:40:06;3.38;;;3.08;;
28028;SDS011;15345;59.364;18.016;2023-12-04T06:41:27;3.63;;;3.13;;
28028;SDS011;15345;59.364;18.016;2023-12-04T06:42:46;3.28;;;2.97;;
28028;SDS011;15345;59.364;18.016;2023-12-04T06:44:05;2.97;;;2.63;;
28028;SDS011;15345;59.364;18.016;2023-12-04T06:45:24;3.30;;;3.00;;
28028;SDS011;15345;59.364;18.016;2023-12-04T06:46:44;4.10;;;3.15;;
28028;SDS011;15345;59.364;18.016;2023-12-04T06:48:06;3.75;;;2.90;;
28028;SDS011;15345;59.364;18.016;2023-12-04T06:49:26;3.63;;;3.33;;
28028;SDS011;15345;59.364;18.016;2023-12-04T06:50:47;5.35;;;3.63;;
28028;SDS011;15345;59.364;18.016;2023-12-04T06:52:06;4.15;;;3.80;;
28028;SDS011;15345;59.364;18.016;2023-12-04T06:53:25;4.25;;;3.85;;
28028;SDS011;15345;59.364;18.016;2023-12-04T06:54:44;4.30;;;3.90;;
28028;SDS011;15345;59.364;18.016;2023-12-04T06:56:03;5.93;;;4.25;;
28028;SDS011;15345;59.364;18.016;2023-12-04T06:57:22;4.00;;;3.63;;
28028;SDS011;15345;59.364;18.016;2023-12-04T06:58:41;7.00;;;4.50;;
28028;SDS011;15345;59.364;18.016;2023-12-04T06:59:59;4.97;;;4.47;;
28028;SDS011;15345;59.364;18.016;2023-12-04T07:01:18;6.22;;;4.30;;
28028;SDS011;15345;59.364;18.016;2023-12-04T07:02:38;4.95;;;4.45;;
28028;SDS011;15345;59.364;18.016;2023-12-04T07:03:57;5.43;;;4.05;;
28028;SDS011;15345;59.364;18.016;2023-12-04T07:05:16;4.05;;;3.65;;
28028;SDS011;15345;59.364;18.016;2023-12-04T07:06:36;4.38;;;3.60;;
28028;SDS011;15345;59.364;18.016;2023-12-04T07:07:55;4.22;;;3.83;;
28028;SDS011;15345;59.364;18.016;2023-12-04T07:09:14;5.35;;;4.47;;
28028;SDS011;15345;59.364;18.016;2023-12-04T07:10:33;5.30;;;3.63;;
28028;SDS011;15345;59.364;18.016;2023-12-04T07:11:52;5.32;;;3.90;;
28028;SDS011;15345;59.364;18.016;2023-12-04T07:13:11;8.23;;;4.30;;
28028;SDS011;15345;59.364;18.016;2023-12-04T07:14:31;5.63;;;4.78;;
28028;SDS011;15345;59.364;18.016;2023-12-04T07:15:50;4.55;;;4.10;;
28028;SDS011;15345;59.364;18.016;2023-12-04T07:17:10;4.88;;;4.10;;
28028;SDS011;15345;59.364;18.016;2023-12-04T07:18:30;4.95;;;4.03;;
28028;SDS011;15345;59.364;18.016;2023-12-04T07:19:49;4.07;;;3.63;;
28028;SDS011;15345;59.364;18.016;2023-12-04T07:21:08;7.47;;;4.38;;
28028;SDS011;15345;59.364;18.016;2023-12-04T07:22:27;4.78;;;4.28;;
28028;SDS011;15345;59.364;18.016;2023-12-04T07:23:46;4.63;;;4.20;;
28028;SDS011;15345;59.364;18.016;2023-12-04T07:25:05;5.00;;;4.05;;
28028;SDS011;15345;59.364;18.016;2023-12-04T07:26:25;5.05;;;4.55;;
28028;SDS011;15345;59.364;18.016;2023-12-04T07:27:45;4.55;;;4.15;;
28028;SDS011;15345;59.364;18.016;2023-12-04T07:29:04;5.47;;;4.22;;
28028;SDS011;15345;59.364;18.016;2023-12-04T07:30:23;4.53;;;3.90;;
28028;SDS011;15345;59.364;18.016;2023-12-04T07:31:43;4.35;;;3.72;;
28028;SDS011;15345;59.364;18.016;2023-12-04T07:33:02;5.95;;;3.95;;
28028;SDS011;15345;59.364;18.016;2023-12-04T07:34:21;4.50;;;4.00;;
28028;SDS011;15345;59.364;18.016;2023-12-04T07:35:40;5.50;;;4.55;;
28028;SDS011;15345;59.364;18.016;2023-12-04T07:36:59;5.15;;;3.92;;
28028;SDS011;15345;59.364;18.016;2023-12-04T07:38:18;4.03;;;3.72;;
28028;SDS011;15345;59.364;18.016;2023-12-04T07:39:37;3.85;;;3.35;;
28028;SDS011;15345;59.364;18.016;2023-12-04T07:40:56;3.90;;;3.58;;
28028;SDS011;15345;59.364;18.016;2023-12-04T07:42:15;3.40;;;3.10;;
28028;SDS011;15345;59.364;18.016;2023-12-04T07:43:34;3.90;;;3.60;;
28028;SDS011;15345;59.364;18.016;2023-12-04T07:44:53;3.42;;;3.13;;
28028;SDS011;15345;59.364;18.016;2023-12-04T07:46:13;4.32;;;2.97;;
28028;SDS011;15345;59.364;18.016;2023-12-04T07:47:32;4.15;;;3.53;;
28028;SDS011;15345;59.364;18.016;2023-12-04T07:48:52;3.95;;;3.47;;
28028;SDS011;15345;59.364;18.016;2023-12-04T07:50:11;3.28;;;2.88;;
28028;SDS011;15345;59.364;18.016;2023-12-04T07:51:30;4.63;;;3.42;;
28028;SDS011;15345;59.364;18.016;2023-12-04T07:52:48;3.33;;;3.00;;
28028;SDS011;15345;59.364;18.016;2023-12-04T07:54:07;3.65;;;3.28;;
28028;SDS011;15345;59.364;18.016;2023-12-04T07:55:26;4.15;;;3.05;;
28028;SDS011;15345;59.364;18.016;2023-12-04T07:56:46;4.85;;;4.07;;